Time;durP1;ratioP1;P1;durP2;ratioP2;P2;SDS_P1;SDS_P2;PMS_P1;PMS_P2;Temp;Humidity;BMP_temperature;BMP_pressure;BME280_temperature;BME280_humidity;BME280_pressure;Samples;Min_cycle;Max_cycle;Signal;HPM_P1;HPM_P2
2022/01/21 00:00:21;;;;;;;9.13;3.63;;;;;;;2.08;51.96;102304.03;5100153;28;20164;-69
2022/01/21 00:02:46;;;;;;;6.57;2.90;;;;;;;2.19;52.44;102297.97;5099359;28;20214;-70
2022/01/21 00:05:12;;;;;;;8.93;4.33;;;;;;;1.83;53.80;102297.19;5098484;28;20500;-71
2022/01/21 00:07:37;;;;;;;6.83;4.13;;;;;;;1.80;52.81;102303.78;5087846;28;20172;-71
2022/01/21 00:10:06;;;;;;;8.87;3.77;;;;;;;1.62;53.33;102299.13;5078117;28;20255;-71
2022/01/21 00:12:33;;;;;;;5.63;3.60;;;;;;;1.79;54.06;102297.75;5077383;28;20168;-71
2022/01/21 00:14:58;;;;;;;6.40;4.00;;;;;;;1.75;53.96;102282.91;5077853;28;20419;-71
2022/01/21 00:17:24;;;;;;;5.90;3.43;;;;;;;1.90;53.87;102292.50;5077830;28;20431;-71
2022/01/21 00:30:02;;;;;;;7.90;3.90;;;;;;;2.10;54.10;102283.59;5078449;28;20196;-70
2022/01/21 00:31:06;;;;;;;11.30;3.63;;;;;;;1.82;53.57;102272.25;5036721;28;20504;-70
2022/01/21 00:33:32;;;;;;;6.07;3.43;;;;;;;1.78;53.81;102272.81;5036225;28;20528;-70
2022/01/21 00:35:58;;;;;;;9.53;5.27;;;;;;;2.05;53.74;102261.81;5055248;28;20269;-67
2022/01/21 00:38:26;;;;;;;4.80;2.77;;;;;;;2.30;52.82;102261.78;5077803;28;20197;-67
2022/01/21 00:40:51;;;;;;;4.80;3.10;;;;;;;2.07;54.37;102266.25;5077807;28;20427;-67
2022/01/21 00:43:28;;;;;;;9.60;3.30;;;;;;;1.71;53.57;102259.47;5077539;28;20784;-68
2022/01/21 00:45:53;;;;;;;8.00;3.63;;;;;;;1.98;53.49;102269.06;5077747;28;20172;-68
2022/01/21 00:48:19;;;;;;;8.57;3.60;;;;;;;1.94;54.52;102271.34;5077768;28;20437;-68
2022/01/21 00:50:44;;;;;;;8.80;3.50;;;;;;;2.05;53.32;102272.09;5077977;28;20287;-69
2022/01/21 00:53:09;;;;;;;7.33;3.30;;;;;;;2.19;53.73;102276.47;5077309;28;20225;-67
2022/01/21 00:55:35;;;;;;;6.20;3.33;;;;;;;2.38;54.50;102265.75;5083525;28;20180;-68
2022/01/21 00:58:00;;;;;;;5.00;3.33;;;;;;;2.32;54.08;102262.78;5098396;28;20486;-68
2022/01/21 01:00:25;;;;;;;5.07;3.70;;;;;;;2.56;53.64;102268.69;5097704;28;20176;-67
2022/01/21 01:02:51;;;;;;;4.47;3.13;;;;;;;2.11;54.70;102263.13;5097598;28;20188;-69
2022/01/21 01:05:16;;;;;;;7.23;3.40;;;;;;;2.61;54.10;102262.19;5098198;28;20259;-70
2022/01/21 01:07:41;;;;;;;4.80;3.10;;;;;;;2.39;54.74;102258.94;5086586;28;20181;-68
2022/01/21 01:10:11;;;;;;;5.93;3.63;;;;;;;2.23;54.25;102264.72;5088014;28;20164;-70
2022/01/21 01:12:54;;;;;;;7.83;3.57;;;;;;;2.23;55.27;102259.59;5068940;28;20444;-69
2022/01/21 01:20:48;;;;;;;10.90;3.50;;;;;;;2.41;56.42;102288.25;5078226;28;20472;-70
2022/01/21 01:28:52;;;;;;;7.60;3.73;;;;;;;2.44;56.48;102291.03;5044468;28;20757;-72
2022/01/21 01:31:17;;;;;;;7.00;3.90;;;;;;;2.24;55.10;102290.56;5081025;28;20469;-71
2022/01/21 01:33:43;;;;;;;7.13;3.83;;;;;;;2.53;54.78;102286.53;5081609;28;20177;-69
2022/01/21 01:36:09;;;;;;;7.17;4.23;;;;;;;2.23;56.95;102283.63;5080963;28;20179;-70
2022/01/21 01:38:58;;;;;;;9.23;4.30;;;;;;;2.18;57.11;102278.16;5080732;28;20848;-68
2022/01/21 01:41:23;;;;;;;14.20;5.67;;;;;;;2.34;56.16;102282.69;5080877;28;20177;-69
2022/01/21 01:52:00;;;;;;;6.80;3.20;;;;;;;2.25;55.60;102279.50;5080421;28;20441;-68
2022/01/21 01:54:27;;;;;;;9.63;3.57;;;;;;;1.91;57.37;102277.16;5080455;28;20415;-69
2022/01/21 01:56:54;;;;;;;5.03;3.40;;;;;;;2.26;56.73;102268.41;5097201;28;20180;-70
2022/01/21 01:59:19;;;;;;;9.77;3.30;;;;;;;2.58;56.64;102267.09;5101386;28;20883;-69
2022/01/21 02:01:56;;;;;;;13.53;3.40;;;;;;;2.11;57.68;102269.91;5106042;28;20425;-68
2022/01/21 02:04:22;;;;;;;9.50;3.50;;;;;;;2.14;58.78;102254.72;5105456;28;20249;-68
2022/01/21 02:06:48;;;;;;;8.83;3.40;;;;;;;2.23;60.12;102260.47;5098589;28;20427;-70
2022/01/21 02:09:14;;;;;;;11.23;4.10;;;;;;;2.01;59.13;102264.13;5080384;28;20416;-69
2022/01/21 02:11:39;;;;;;;7.40;3.90;;;;;;;2.25;60.10;102255.44;5063385;28;20510;-69
2022/01/21 02:14:08;;;;;;;15.30;4.60;;;;;;;2.25;59.00;102256.34;5080195;28;20460;-70
2022/01/21 02:16:55;;;;;;;10.27;3.70;;;;;;;2.18;59.45;102249.88;5079963;28;20164;-70
2022/01/21 02:22:04;;;;;;;12.07;3.80;;;;;;;2.08;61.34;102264.56;5080029;28;20860;-70
2022/01/21 02:24:45;;;;;;;8.10;4.20;;;;;;;2.39;59.64;102257.25;5079815;28;20419;-70
2022/01/21 02:27:10;;;;;;;11.10;3.90;;;;;;;2.45;61.78;102261.91;5080724;28;20238;-70
2022/01/21 02:29:44;;;;;;;6.97;3.67;;;;;;;2.56;60.91;102262.63;5079968;28;20777;-69
2022/01/21 02:32:10;;;;;;;8.93;3.80;;;;;;;2.36;61.56;102268.22;5063782;28;20264;-69
2022/01/21 02:34:35;;;;;;;14.30;4.83;;;;;;;2.16;61.81;102268.56;5079416;28;20681;-68
2022/01/21 02:37:00;;;;;;;14.67;4.13;;;;;;;2.66;61.46;102262.47;5080097;28;20180;-69
2022/01/21 02:39:26;;;;;;;8.70;3.60;;;;;;;2.72;60.30;102272.28;5079393;28;20216;-69
2022/01/21 02:41:51;;;;;;;11.00;4.20;;;;;;;2.87;60.73;102270.72;5079556;28;20241;-69
2022/01/21 02:44:18;;;;;;;13.33;4.33;;;;;;;2.46;63.53;102280.06;5079737;28;20527;-67
2022/01/21 02:46:45;;;;;;;10.10;4.43;;;;;;;2.51;60.81;102275.22;5079527;28;20183;-66
2022/01/21 02:49:11;;;;;;;14.57;4.33;;;;;;;2.61;60.99;102275.06;5079387;28;20451;-71
2022/01/21 02:51:37;;;;;;;8.03;3.50;;;;;;;2.49;61.41;102274.19;5079662;28;20435;-71
2022/01/21 02:54:05;;;;;;;8.67;3.83;;;;;;;2.56;61.74;102276.41;5079116;28;20468;-69
2022/01/21 02:56:36;;;;;;;9.27;4.10;;;;;;;2.42;60.70;102278.06;5092920;28;20203;-70
2022/01/21 02:59:02;;;;;;;11.27;4.70;;;;;;;2.49;61.37;102271.63;5099589;28;20493;-68
2022/01/21 03:01:31;;;;;;;6.73;3.30;;;;;;;2.78;60.34;102270.13;5099497;28;20745;-69
2022/01/21 03:03:57;;;;;;;8.47;4.10;;;;;;;2.85;61.02;102264.56;5082519;28;20471;-69
2022/01/21 03:06:23;;;;;;;11.23;4.40;;;;;;;2.43;61.37;102263.50;5099157;28;20418;-70
2022/01/21 03:08:49;;;;;;;8.80;4.00;;;;;;;2.56;61.13;102276.41;5079052;28;20419;-69
2022/01/21 03:11:15;;;;;;;4.97;3.77;;;;;;;3.22;59.90;102261.81;5079266;28;20165;-68
2022/01/21 03:13:42;;;;;;;8.73;3.77;;;;;;;3.14;60.91;102270.72;5078701;28;20403;-70
2022/01/21 03:16:07;;;;;;;9.40;4.00;;;;;;;2.58;60.31;102269.69;5061582;28;20402;-69
2022/01/21 03:18:32;;;;;;;11.90;4.10;;;;;;;2.83;60.19;102272.22;5079027;28;20487;-70
2022/01/21 03:20:58;;;;;;;13.63;4.50;;;;;;;3.09;59.33;102264.41;5078623;28;20177;-70
2022/01/21 03:23:25;;;;;;;6.57;3.80;;;;;;;3.34;58.90;102272.91;5078547;28;20211;-70
2022/01/21 03:25:50;;;;;;;12.50;4.13;;;;;;;3.28;58.89;102271.63;5079138;28;20165;-70
2022/01/21 03:28:16;;;;;;;15.93;4.90;;;;;;;3.34;59.00;102275.50;5078614;28;20430;-70
2022/01/21 03:30:41;;;;;;;20.23;4.20;;;;;;;3.28;59.25;102279.38;5078654;28;20595;-71
2022/01/21 03:33:07;;;;;;;11.07;3.73;;;;;;;3.41;58.56;102278.44;5078842;28;20169;-70
2022/01/21 03:35:33;;;;;;;4.60;2.87;;;;;;;7.55;82.97;102249.34;5084612;28;20291;-64
2022/01/21 03:37:58;;;;;;;5.07;3.83;;;;;;;11.83;54.20;102233.22;5098644;28;20249;-68
2022/01/21 03:40:24;;;;;;;10.03;4.40;;;;;;;6.34;51.64;102251.28;5080569;28;20478;-66
2022/01/21 03:42:50;;;;;;;11.27;4.37;;;;;;;5.23;53.03;102256.59;5098582;28;20165;-66
2022/01/21 03:45:15;;;;;;;8.33;3.73;;;;;;;4.49;55.07;102254.06;5098593;28;20180;-65
2022/01/21 03:47:42;;;;;;;8.33;4.07;;;;;;;4.15;56.52;102240.03;5098340;28;20231;-67
2022/01/21 03:50:53;;;;;;;13.47;4.47;;;;;;;4.00;57.89;102245.16;5098579;28;20196;-66
2022/01/21 03:52:53;;;;;;;11.10;3.90;;;;;;;3.21;59.57;102254.88;5084310;28;20468;-66
2022/01/21 03:55:19;;;;;;;9.07;3.97;;;;;;;3.50;59.86;102255.84;5098550;28;20419;-65
2022/01/21 03:57:44;;;;;;;15.10;3.80;;;;;;;3.63;60.02;102247.19;5098516;28;20178;-66
2022/01/21 04:00:13;;;;;;;7.97;3.87;;;;;;;3.27;62.84;102244.94;5098890;28;20191;-67
2022/01/21 04:02:38;;;;;;;12.10;4.20;;;;;;;3.66;59.98;102235.34;5098192;28;20164;-65
2022/01/21 04:05:03;;;;;;;9.37;4.07;;;;;;;3.35;60.72;102230.84;5098366;28;20717;-66
2022/01/21 04:07:29;;;;;;;11.00;4.27;;;;;;;3.51;60.93;102224.09;5081515;28;20426;-66
2022/01/21 04:09:54;;;;;;;11.60;4.30;;;;;;;3.53;61.11;102233.72;5098519;28;20230;-67
2022/01/21 04:12:19;;;;;;;9.33;3.90;;;;;;;3.57;61.51;102245.09;5099477;28;20234;-66
2022/01/21 04:14:45;;;;;;;16.70;4.37;;;;;;;3.60;62.22;102240.16;5086396;28;20165;-66
2022/01/21 04:17:10;;;;;;;10.03;4.10;;;;;;;3.44;62.01;102246.03;5101028;28;20530;-66
2022/01/21 04:19:35;;;;;;;10.90;4.50;;;;;;;3.63;62.34;102248.06;5101164;28;20516;-65
2022/01/21 04:22:00;;;;;;;7.40;3.70;;;;;;;3.49;63.38;102243.72;5099211;28;20168;-65
2022/01/21 04:24:26;;;;;;;10.27;4.17;;;;;;;3.64;61.81;102241.22;5098186;28;20176;-65
2022/01/21 04:26:51;;;;;;;8.33;4.20;;;;;;;3.36;63.44;102240.38;5098171;28;20168;-64
2022/01/21 04:29:17;;;;;;;8.33;3.33;;;;;;;3.66;62.10;102234.47;5080989;28;20183;-65
2022/01/21 04:31:42;;;;;;;12.40;4.50;;;;;;;3.28;63.93;102228.69;5098120;28;20538;-65
2022/01/21 04:34:07;;;;;;;10.27;4.63;;;;;;;3.59;63.96;102217.72;5097973;28;20191;-65
2022/01/21 04:36:34;;;;;;;17.00;4.43;;;;;;;3.26;64.62;102217.41;5098453;28;20206;-65
2022/01/21 04:39:01;;;;;;;10.97;4.00;;;;;;;3.48;64.77;102214.47;5098095;28;20284;-64
2022/01/21 04:47:11;;;;;;;8.60;4.07;;;;;;;3.23;65.34;102212.03;5098127;28;20446;-65
2022/01/21 04:49:39;;;;;;;11.63;4.13;;;;;;;3.36;65.14;102201.72;5097984;28;20421;-65
2022/01/21 04:52:05;;;;;;;9.27;3.40;;;;;;;3.23;65.86;102208.59;5097726;28;20867;-65
2022/01/21 04:54:32;;;;;;;10.40;4.10;;;;;;;3.32;65.52;102206.59;5097966;28;20169;-65
2022/01/21 04:56:58;;;;;;;11.27;4.30;;;;;;;3.49;65.02;102210.22;5097807;28;20679;-65
2022/01/21 04:59:23;;;;;;;17.00;4.80;;;;;;;3.34;65.85;102210.13;5101483;28;20437;-65
2022/01/21 05:01:48;;;;;;;13.50;5.10;;;;;;;3.54;65.85;102206.22;5101708;28;20199;-65
2022/01/21 05:04:14;;;;;;;10.53;4.70;;;;;;;3.38;67.50;102212.13;5101300;28;20168;-65
2022/01/21 05:06:40;;;;;;;15.37;3.90;;;;;;;3.07;67.27;102217.91;5102137;28;20396;-65
2022/01/21 05:09:06;;;;;;;9.90;4.50;;;;;;;3.00;67.43;102226.94;5101557;28;20180;-66
2022/01/21 05:11:36;;;;;;;10.43;4.67;;;;;;;3.24;65.76;102231.88;5101463;28;21136;-65
2022/01/21 05:14:13;;;;;;;14.33;4.07;;;;;;;3.26;66.55;102237.13;5101653;28;20172;-65
2022/01/21 05:16:45;;;;;;;7.73;3.80;;;;;;;3.12;66.36;102249.13;5101355;28;20853;-65
2022/01/21 05:19:15;;;;;;;8.53;4.07;;;;;;;3.32;65.65;102247.84;5101432;28;20468;-65
2022/01/21 05:21:41;;;;;;;11.60;4.50;;;;;;;3.33;65.41;102259.94;5084482;28;20725;-65
2022/01/21 05:24:06;;;;;;;9.97;4.30;;;;;;;3.33;65.62;102259.94;5101161;28;20475;-66
2022/01/21 05:26:36;;;;;;;13.20;3.93;;;;;;;3.70;64.66;102252.81;5083840;28;20406;-65
2022/01/21 05:29:06;;;;;;;12.90;5.63;;;;;;;3.47;64.26;102264.25;5101243;28;20563;-65
2022/01/21 05:31:31;;;;;;;15.50;4.87;;;;;;;3.76;66.42;102262.63;5101142;28;20692;-65
2022/01/21 05:33:56;;;;;;;11.20;4.30;;;;;;;3.17;66.21;102265.78;5101281;28;20426;-65
2022/01/21 05:36:22;;;;;;;8.27;4.03;;;;;;;3.36;65.41;102262.69;5100947;28;20184;-64
2022/01/21 05:38:47;;;;;;;10.17;5.37;;;;;;;3.53;64.32;102271.47;5100858;28;20207;-65
2022/01/21 05:41:14;;;;;;;10.07;3.90;;;;;;;3.69;64.17;102261.34;5101538;28;20425;-65
2022/01/21 05:43:45;;;;;;;6.87;3.10;;;;;;;3.38;65.47;102281.72;5100884;28;20520;-66
2022/01/21 05:46:30;;;;;;;8.73;3.60;;;;;;;3.70;64.97;102281.16;5100980;28;20411;-65
2022/01/21 05:48:55;;;;;;;11.20;4.33;;;;;;;3.54;65.40;102281.91;5100992;28;20422;-66
2022/01/21 05:51:21;;;;;;;6.70;3.20;;;;;;;3.66;63.51;102280.91;5100685;28;20575;-66
2022/01/21 05:53:46;;;;;;;10.23;4.60;;;;;;;3.37;63.12;102272.22;5100440;28;20216;-66
2022/01/21 05:56:12;;;;;;;9.00;3.47;;;;;;;3.50;64.04;102279.03;5100663;28;20439;-65
2022/01/21 05:58:37;;;;;;;8.40;3.83;;;;;;;2.81;62.19;102278.91;5100945;28;20232;-65
2022/01/21 06:01:04;;;;;;;6.83;3.37;;;;;;;3.31;61.32;102285.59;5100383;28;20419;-65
2022/01/21 06:03:31;;;;;;;9.13;3.13;;;;;;;3.42;63.12;102273.38;5082564;28;20212;-64
2022/01/21 06:05:56;;;;;;;12.80;3.60;;;;;;;3.67;61.32;102275.84;5083250;28;20418;-64
2022/01/21 06:08:22;;;;;;;9.57;4.47;;;;;;;3.62;60.82;102277.22;5082722;28;20414;-66
2022/01/21 06:10:47;;;;;;;8.50;3.47;;;;;;;3.43;61.67;102277.75;5082088;28;20211;-65
2022/01/21 06:13:17;;;;;;;10.67;3.80;;;;;;;3.15;61.11;102273.44;5100612;28;20199;-66
2022/01/21 06:15:43;;;;;;;7.10;3.00;;;;;;;3.35;60.68;102281.53;5100704;28;20550;-65
2022/01/21 06:18:08;;;;;;;17.27;4.30;;;;;;;3.86;60.46;102284.72;5099988;28;20411;-65
2022/01/21 06:20:34;;;;;;;9.13;3.30;;;;;;;3.43;59.99;102280.34;5100721;28;20409;-64
2022/01/21 06:22:59;;;;;;;12.43;4.73;;;;;;;3.45;62.19;102277.84;5099910;28;20172;-65
2022/01/21 06:25:24;;;;;;;6.17;3.63;;;;;;;3.50;60.60;102276.47;5100054;28;20172;-66
2022/01/21 06:27:50;;;;;;;10.77;3.90;;;;;;;3.51;60.88;102285.97;5100530;28;20186;-65
2022/01/21 06:30:15;;;;;;;7.33;3.17;;;;;;;3.36;60.23;102276.47;5099967;28;20223;-65
2022/01/21 06:32:41;;;;;;;5.90;3.10;;;;;;;3.39;59.83;102283.50;5099789;28;20187;-65
2022/01/21 06:35:10;;;;;;;9.67;3.60;;;;;;;3.09;61.20;102283.31;5100274;28;20200;-65
2022/01/21 06:37:35;;;;;;;6.63;3.20;;;;;;;3.56;59.25;102289.75;5099699;28;20410;-66
2022/01/21 06:40:01;;;;;;;6.33;3.50;;;;;;;3.43;60.11;102300.06;5099652;28;20473;-66
2022/01/21 06:42:29;;;;;;;7.53;3.10;;;;;;;3.49;58.94;102305.59;5100383;28;20446;-66
2022/01/21 06:44:54;;;;;;;9.83;3.83;;;;;;;3.14;59.08;102306.78;5100292;28;20168;-65
2022/01/21 06:47:19;;;;;;;4.40;3.03;;;;;;;3.28;59.60;102313.75;5099339;28;20421;-65
2022/01/21 06:49:46;;;;;;;14.13;3.70;;;;;;;3.12;58.75;102313.56;5082121;28;20489;-65
2022/01/21 06:52:11;;;;;;;13.13;3.50;;;;;;;3.22;58.64;102320.19;5098975;28;20243;-65
2022/01/21 06:54:37;;;;;;;6.20;3.47;;;;;;;3.26;60.00;102333.41;5099269;28;20483;-65
2022/01/21 06:57:03;;;;;;;9.50;3.97;;;;;;;3.09;59.74;102327.13;5099830;28;20191;-65
2022/01/21 06:59:28;;;;;;;4.63;2.80;;;;;;;3.13;57.89;102339.41;5099334;28;20196;-66
2022/01/21 07:01:53;;;;;;;5.97;3.03;;;;;;;3.10;57.94;102335.72;5099571;28;20183;-65
2022/01/21 07:04:18;;;;;;;4.40;2.97;;;;;;;3.23;58.85;102345.19;5099627;28;20184;-64
2022/01/21 07:06:44;;;;;;;9.30;3.80;;;;;;;3.18;57.84;102342.28;5099226;28;20179;-66
2022/01/21 07:09:09;;;;;;;5.53;3.70;;;;;;;3.41;59.22;102341.22;5099181;28;20273;-66
2022/01/21 07:11:34;;;;;;;8.27;4.00;;;;;;;3.28;59.74;102354.13;5099569;28;20191;-65
2022/01/21 07:14:00;;;;;;;4.50;3.03;;;;;;;3.00;58.31;102352.28;5099071;28;20180;-66
2022/01/21 07:16:25;;;;;;;9.67;4.57;;;;;;;3.17;58.57;102358.56;5099200;28;20226;-66
2022/01/21 07:18:50;;;;;;;10.73;4.20;;;;;;;3.09;59.21;102360.63;5101107;28;20196;-65
2022/01/21 07:21:15;;;;;;;9.53;4.00;;;;;;;3.13;57.07;102361.72;5104604;28;20172;-65
2022/01/21 07:23:41;;;;;;;10.33;4.30;;;;;;;3.19;57.31;102365.59;5109031;28;20172;-66
2022/01/21 07:26:06;;;;;;;6.33;3.17;;;;;;;3.41;56.69;102368.69;5105948;28;20228;-65
2022/01/21 07:28:33;;;;;;;12.20;3.50;;;;;;;3.20;56.45;102366.50;5083630;28;20526;-66
2022/01/21 07:30:59;;;;;;;11.10;3.47;;;;;;;3.12;57.10;102370.25;5099423;28;20176;-65
2022/01/21 07:33:24;;;;;;;10.03;3.77;;;;;;;3.06;56.64;102372.41;5099420;28;20412;-66
2022/01/21 07:35:50;;;;;;;6.60;3.13;;;;;;;3.07;56.49;102363.88;5098755;28;20811;-66
2022/01/21 07:38:15;;;;;;;9.77;3.10;;;;;;;2.79;57.55;102380.97;5098706;28;20172;-66
2022/01/21 07:40:41;;;;;;;9.63;3.33;;;;;;;2.94;57.14;102377.66;5099121;28;20417;-66
2022/01/21 07:43:07;;;;;;;8.37;3.40;;;;;;;3.11;56.58;102381.34;5098519;28;20629;-66
2022/01/21 07:45:32;;;;;;;11.13;3.83;;;;;;;2.93;56.46;102376.72;5098412;28;20160;-66
2022/01/21 07:47:58;;;;;;;14.23;4.60;;;;;;;3.26;57.98;102390.09;5099162;28;20448;-65
2022/01/21 07:50:23;;;;;;;6.93;3.40;;;;;;;2.95;57.11;102385.47;5063996;28;20184;-66
2022/01/21 07:52:48;;;;;;;12.53;3.77;;;;;;;2.73;58.44;102380.53;5098349;28;20272;-66
2022/01/21 07:55:14;;;;;;;7.13;3.30;;;;;;;3.22;56.84;102385.53;5099146;28;20171;-66
2022/01/21 07:57:39;;;;;;;8.57;3.73;;;;;;;3.35;55.78;102382.06;5080717;28;20200;-66
2022/01/21 08:00:06;;;;;;;6.30;3.67;;;;;;;3.41;55.25;102390.22;5098298;28;20227;-66
2022/01/21 08:02:32;;;;;;;7.80;3.07;;;;;;;3.26;55.49;102390.09;5081023;28;20168;-66
2022/01/21 08:05:00;;;;;;;6.50;3.20;;;;;;;3.78;54.52;102396.88;5098184;28;20452;-65
2022/01/21 08:07:26;;;;;;;8.47;3.40;;;;;;;3.84;54.88;102392.06;5098417;28;20737;-67
2022/01/21 08:09:53;;;;;;;6.80;3.17;;;;;;;3.40;54.96;102397.81;5098668;28;20437;-67
2022/01/21 08:12:18;;;;;;;6.43;3.30;;;;;;;3.70;54.12;102402.41;5098265;28;20534;-67
2022/01/21 08:14:44;;;;;;;8.60;3.20;;;;;;;5.41;51.26;102387.72;5098154;28;20429;-67
2022/01/21 08:17:09;;;;;;;6.30;3.53;;;;;;;5.47;48.63;102390.69;5098524;28;20164;-66
2022/01/21 08:19:34;;;;;;;5.83;3.67;;;;;;;5.73;47.98;102391.25;5098293;28;20215;-67
2022/01/21 08:22:00;;;;;;;8.60;3.40;;;;;;;5.12;48.58;102393.81;5098158;28;20196;-66
2022/01/21 08:24:25;;;;;;;7.87;4.03;;;;;;;5.10;48.67;102396.31;5098601;28;20172;-66
2022/01/21 08:26:50;;;;;;;7.43;3.40;;;;;;;4.54;50.14;102399.84;5098092;28;20246;-65
2022/01/21 08:29:16;;;;;;;8.73;2.97;;;;;;;4.38;50.55;102393.78;5098046;28;20172;-66
2022/01/21 08:31:42;;;;;;;6.70;3.70;;;;;;;5.16;50.30;102390.59;5098395;28;20247;-67
2022/01/21 08:34:07;;;;;;;11.97;3.77;;;;;;;4.83;49.30;102393.88;5100848;28;20693;-66
2022/01/21 08:36:32;;;;;;;5.03;3.23;;;;;;;4.68;48.99;102398.09;5103144;28;20309;-66
2022/01/21 08:38:58;;;;;;;4.20;3.30;;;;;;;5.65;46.79;102395.13;5102471;28;20238;-65
2022/01/21 08:41:23;;;;;;;4.50;2.87;;;;;;;6.59;43.74;102395.09;5102026;28;20172;-66
2022/01/21 08:43:48;;;;;;;5.90;3.67;;;;;;;7.89;41.48;102394.63;5101842;28;20179;-65
2022/01/21 08:46:14;;;;;;;5.83;2.93;;;;;;;8.48;39.24;102389.53;5102154;28;20186;-66
2022/01/21 08:48:39;;;;;;;8.50;3.43;;;;;;;9.13;37.76;102388.84;5101943;28;20171;-66
2022/01/21 08:51:13;;;;;;;7.77;3.40;;;;;;;9.21;37.79;102390.06;5084165;28;20566;-66
2022/01/21 08:53:41;;;;;;;6.43;3.33;;;;;;;9.95;36.32;102395.63;5101499;28;20223;-66
2022/01/21 08:56:10;;;;;;;4.77;3.70;;;;;;;9.87;36.01;102404.88;5101947;28;20676;-65
2022/01/21 08:58:36;;;;;;;5.40;3.60;;;;;;;10.36;35.38;102400.69;5101893;28;20443;-66
2022/01/21 09:01:01;;;;;;;7.67;3.80;;;;;;;10.67;34.78;102402.69;5101693;28;20410;-71
2022/01/21 09:03:27;;;;;;;4.50;3.40;;;;;;;10.15;34.92;102405.91;5095127;28;20187;-68
2022/01/21 09:05:52;;;;;;;7.70;3.83;;;;;;;10.33;34.51;102410.97;5090448;28;20314;-70
2022/01/21 09:08:19;;;;;;;9.57;4.20;;;;;;;9.85;35.05;102423.03;5094379;28;20180;-70
2022/01/21 09:10:44;;;;;;;11.23;4.80;;;;;;;10.14;34.71;102414.59;5101516;28;20171;-70
2022/01/21 09:13:10;;;;;;;10.07;4.37;;;;;;;10.34;34.76;102415.34;5083502;28;20652;-70
2022/01/21 09:15:36;;;;;;;5.70;4.37;;;;;;;10.69;33.39;102414.06;5081605;28;20565;-71
2022/01/21 09:18:03;;;;;;;5.17;3.70;;;;;;;9.48;35.23;102418.06;5081314;28;20161;-71
2022/01/21 09:20:29;;;;;;;5.20;3.87;;;;;;;10.87;33.65;102416.44;5089255;28;20536;-69
2022/01/21 09:22:54;;;;;;;7.77;4.60;;;;;;;10.85;33.84;102410.28;5101213;28;20393;-70
2022/01/21 09:25:19;;;;;;;6.77;4.07;;;;;;;11.11;32.50;102419.03;5101216;28;20600;-70
2022/01/21 09:27:45;;;;;;;5.57;4.00;;;;;;;10.76;32.88;102423.88;5101484;28;20180;-70
2022/01/21 09:30:11;;;;;;;5.20;3.80;;;;;;;11.60;31.89;102421.50;5101030;28;20169;-70
2022/01/21 09:32:36;;;;;;;7.20;3.93;;;;;;;11.84;31.40;102415.28;5100852;28;20176;-70
2022/01/21 09:35:02;;;;;;;4.17;3.37;;;;;;;11.22;31.84;102427.22;5101625;28;20192;-70
2022/01/21 09:37:27;;;;;;;3.87;3.47;;;;;;;10.88;31.50;102430.34;5093628;28;20188;-69
2022/01/21 09:39:53;;;;;;;3.97;3.57;;;;;;;11.68;31.54;102416.53;5080576;28;20765;-70
2022/01/21 09:42:18;;;;;;;5.77;3.50;;;;;;;11.50;30.92;102404.66;5080785;28;20188;-69
2022/01/21 09:44:45;;;;;;;3.70;3.20;;;;;;;11.41;31.30;102414.78;5079326;28;20553;-69
2022/01/21 09:47:14;;;;;;;4.87;3.50;;;;;;;11.33;31.26;102416.25;5080477;28;20176;-69
2022/01/21 09:49:41;;;;;;;6.53;3.30;;;;;;;11.03;31.73;102423.09;5080960;28;20382;-70
2022/01/21 09:52:08;;;;;;;3.97;3.40;;;;;;;10.56;32.85;102419.66;5062938;28;20525;-71
2022/01/21 09:54:37;;;;;;;4.10;3.17;;;;;;;10.56;32.31;102419.66;5080196;28;20390;-68
2022/01/21 09:57:04;;;;;;;3.80;3.30;;;;;;;10.50;32.09;102422.03;5080624;28;20409;-69
2022/01/21 09:59:33;;;;;;;8.90;4.00;;;;;;;10.84;32.39;102428.47;5080192;28;20467;-68
2022/01/21 10:02:01;;;;;;;5.00;3.30;;;;;;;10.43;32.48;102433.97;5080319;28;20419;-67
2022/01/21 10:04:29;;;;;;;5.40;3.30;;;;;;;10.86;32.23;102434.66;5080366;28;20793;-67
2022/01/21 10:06:56;;;;;;;6.40;3.73;;;;;;;10.93;32.15;102428.81;5079493;28;20425;-67
2022/01/21 10:09:22;;;;;;;5.47;3.80;;;;;;;10.97;32.52;102428.06;5080029;28;20768;-67
2022/01/21 10:11:49;;;;;;;6.50;4.53;;;;;;;11.14;32.29;102426.06;5089032;28;20426;-67
2022/01/21 10:14:23;;;;;;;7.73;4.07;;;;;;;10.25;34.68;102427.19;5099511;28;20673;-66
2022/01/21 10:16:49;;;;;;;7.30;3.63;;;;;;;11.06;33.01;102430.16;5100566;28;20396;-67
2022/01/21 10:19:26;;;;;;;5.13;3.50;;;;;;;9.72;35.13;102432.06;5100012;28;20518;-66
2022/01/21 10:22:08;;;;;;;5.00;3.47;;;;;;;10.92;34.32;102434.88;5101326;28;20552;-68
2022/01/21 10:24:35;;;;;;;6.10;3.30;;;;;;;10.08;35.38;102439.59;5102784;28;20465;-68
2022/01/21 10:27:00;;;;;;;5.10;3.33;;;;;;;10.86;35.77;102442.47;5105528;28;20410;-66
2022/01/21 10:29:41;;;;;;;6.50;3.50;;;;;;;11.09;34.47;102436.34;5107210;28;20422;-66
2022/01/21 10:32:08;;;;;;;8.30;4.80;;;;;;;11.01;35.96;102443.00;5100512;28;20247;-66
2022/01/21 10:34:40;;;;;;;5.10;3.20;;;;;;;10.70;36.25;102443.63;5099977;28;20420;-66
2022/01/21 10:37:26;;;;;;;8.83;3.77;;;;;;;10.77;36.19;102446.53;5099967;28;20681;-66
2022/01/21 10:39:58;;;;;;;4.83;3.67;;;;;;;11.10;37.33;102442.47;5099652;28;20731;-66
2022/01/21 10:42:25;;;;;;;6.27;3.60;;;;;;;10.78;36.40;102450.03;5099918;28;20444;-66
2022/01/21 10:44:50;;;;;;;6.50;4.00;;;;;;;10.94;36.32;102443.63;5099445;28;20472;-68
2022/01/21 10:47:16;;;;;;;5.83;3.23;;;;;;;10.65;37.35;102450.41;5099660;28;20466;-66
2022/01/21 10:49:44;;;;;;;4.73;3.50;;;;;;;10.34;38.71;102454.47;5099243;28;20543;-67
2022/01/21 10:52:14;;;;;;;4.20;3.27;;;;;;;9.36;40.58;102461.00;5099288;28;20259;-68
2022/01/21 10:54:41;;;;;;;7.00;3.70;;;;;;;8.70;41.75;102458.06;5099414;28;20417;-70
2022/01/21 10:57:14;;;;;;;8.07;4.03;;;;;;;8.99;42.80;102459.38;5099468;28;20410;-71
2022/01/21 10:59:58;;;;;;;7.23;3.80;;;;;;;8.70;42.74;102452.88;5099290;28;20466;-70
2022/01/21 11:02:45;;;;;;;5.17;3.30;;;;;;;9.61;42.13;102444.66;5099577;28;20400;-70
2022/01/21 11:05:27;;;;;;;6.10;3.53;;;;;;;9.56;42.00;102445.28;5099144;28;20434;-70
2022/01/21 11:08:00;;;;;;;4.47;3.57;;;;;;;10.69;39.88;102439.25;5099347;28;20440;-69
2022/01/21 11:10:31;;;;;;;4.30;3.57;;;;;;;10.25;40.65;102440.22;5099280;28;20443;-69
2022/01/21 11:13:03;;;;;;;20.27;4.27;;;;;;;9.56;41.88;102451.38;5080253;28;20389;-70
2022/01/21 11:15:39;;;;;;;9.50;4.10;;;;;;;10.92;40.14;102434.88;5061209;28;20398;-69
2022/01/21 11:18:06;;;;;;;8.10;4.00;;;;;;;10.87;40.22;102428.59;5078696;28;20418;-68
2022/01/21 11:20:36;;;;;;;7.17;4.53;;;;;;;9.53;43.17;102445.19;5078590;28;20437;-69
2022/01/21 11:23:01;;;;;;;5.90;4.20;;;;;;;9.62;43.07;102442.97;5078644;28;20794;-69
2022/01/21 11:25:42;;;;;;;9.70;3.60;;;;;;;9.71;43.45;102451.13;5079188;28;20377;-69
2022/01/21 11:28:08;;;;;;;9.30;3.80;;;;;;;9.29;44.09;102440.72;5078697;28;20173;-68
2022/01/21 11:30:34;;;;;;;12.43;4.23;;;;;;;9.62;43.99;102432.53;5078347;28;20657;-67
2022/01/21 11:32:59;;;;;;;7.97;4.40;;;;;;;9.53;45.08;102439.97;5078365;28;20184;-68
2022/01/21 11:35:26;;;;;;;6.70;3.40;;;;;;;9.72;44.31;102432.06;5097422;28;20579;-68
2022/01/21 11:37:51;;;;;;;8.77;3.83;;;;;;;9.46;45.63;102438.81;5101494;28;20199;-67
2022/01/21 11:40:17;;;;;;;5.83;3.50;;;;;;;8.81;46.78;102436.06;5118559;28;20747;-67
2022/01/21 11:42:43;;;;;;;6.03;4.03;;;;;;;8.33;48.64;102439.06;5101186;28;20526;-69
2022/01/21 11:45:30;;;;;;;7.70;4.23;;;;;;;8.10;49.02;102448.38;5101308;28;20472;-69
2022/01/21 11:50:37;;;;;;;10.07;4.10;;;;;;;8.35;49.20;102428.72;5118561;28;20441;-67
2022/01/21 11:53:05;;;;;;;12.40;4.30;;;;;;;8.32;49.88;102432.09;5112586;27;20928;-66
2022/01/21 11:55:34;;;;;;;6.47;4.10;;;;;;;8.51;49.90;102425.16;5139066;27;20177;-67
2022/01/21 11:58:15;;;;;;;8.50;4.37;;;;;;;8.37;51.02;102420.19;5139294;27;20392;-68
2022/01/21 12:00:41;;;;;;;12.60;4.00;;;;;;;8.20;52.12;102418.53;5139302;27;20413;-67
2022/01/21 12:03:07;;;;;;;15.37;3.90;;;;;;;8.23;52.17;102419.56;5138852;27;20412;-69
2022/01/21 12:05:35;;;;;;;9.53;4.07;;;;;;;8.54;52.63;102413.22;5139229;27;20404;-68
2022/01/21 12:08:05;;;;;;;10.07;4.23;;;;;;;8.47;52.10;102407.66;5138025;27;20166;-68